sensor_id;sensor_type;location;lat;lon;timestamp;P1;durP1;ratioP1;P2;durP2;ratioP2
9117;SDS011;4594;50.994;7.126;2023-10-13T00:00:32;5.73;;;4.17;;
9117;SDS011;4594;50.994;7.126;2023-10-13T00:03:02;4.80;;;4.40;;
9117;SDS011;4594;50.994;7.126;2023-10-13T00:05:29;4.20;;;3.90;;
9117;SDS011;4594;50.994;7.126;2023-10-13T00:07:57;5.13;;;4.60;;
9117;SDS011;4594;50.994;7.126;2023-10-13T00:10:30;8.90;;;4.77;;
9117;SDS011;4594;50.994;7.126;2023-10-13T00:13:00;4.60;;;4.20;;
9117;SDS011;4594;50.994;7.126;2023-10-13T00:15:41;4.80;;;4.27;;
9117;SDS011;4594;50.994;7.126;2023-10-13T00:18:31;6.50;;;4.30;;
9117;SDS011;4594;50.994;7.126;2023-10-13T00:21:06;5.33;;;4.70;;
9117;SDS011;4594;50.994;7.126;2023-10-13T00:24:00;5.97;;;4.50;;
9117;SDS011;4594;50.994;7.126;2023-10-13T00:26:27;4.73;;;4.33;;
9117;SDS011;4594;50.994;7.126;2023-10-13T00:28:55;4.67;;;4.27;;
9117;SDS011;4594;50.994;7.126;2023-10-13T00:31:32;7.23;;;4.60;;
9117;SDS011;4594;50.994;7.126;2023-10-13T00:34:01;4.97;;;4.43;;
9117;SDS011;4594;50.994;7.126;2023-10-13T00:36:41;6.47;;;4.83;;
9117;SDS011;4594;50.994;7.126;2023-10-13T00:39:25;4.90;;;4.40;;
9117;SDS011;4594;50.994;7.126;2023-10-13T00:41:53;5.30;;;4.63;;
9117;SDS011;4594;50.994;7.126;2023-10-13T00:44:24;5.00;;;4.43;;
9117;SDS011;4594;50.994;7.126;2023-10-13T00:46:57;5.60;;;4.67;;
9117;SDS011;4594;50.994;7.126;2023-10-13T00:49:23;7.17;;;4.73;;
9117;SDS011;4594;50.994;7.126;2023-10-13T00:51:50;5.30;;;4.80;;
9117;SDS011;4594;50.994;7.126;2023-10-13T00:54:16;4.70;;;4.23;;
9117;SDS011;4594;50.994;7.126;2023-10-13T00:56:44;4.67;;;4.27;;
9117;SDS011;4594;50.994;7.126;2023-10-13T00:59:22;4.80;;;4.40;;
9117;SDS011;4594;50.994;7.126;2023-10-13T01:01:50;7.57;;;4.93;;
9117;SDS011;4594;50.994;7.126;2023-10-13T01:04:20;6.93;;;4.87;;
9117;SDS011;4594;50.994;7.126;2023-10-13T01:06:53;4.73;;;4.30;;
9117;SDS011;4594;50.994;7.126;2023-10-13T01:09:18;5.17;;;4.70;;
9117;SDS011;4594;50.994;7.126;2023-10-13T01:11:45;6.20;;;4.97;;
9117;SDS011;4594;50.994;7.126;2023-10-13T01:14:17;5.73;;;4.63;;
9117;SDS011;4594;50.994;7.126;2023-10-13T01:16:48;4.97;;;4.47;;
9117;SDS011;4594;50.994;7.126;2023-10-13T01:19:18;7.27;;;4.40;;
9117;SDS011;4594;50.994;7.126;2023-10-13T01:21:52;6.07;;;4.67;;
9117;SDS011;4594;50.994;7.126;2023-10-13T01:24:27;5.57;;;4.70;;
9117;SDS011;4594;50.994;7.126;2023-10-13T01:26:59;7.97;;;5.67;;
9117;SDS011;4594;50.994;7.126;2023-10-13T01:29:41;4.80;;;4.40;;
9117;SDS011;4594;50.994;7.126;2023-10-13T01:32:14;6.73;;;4.83;;
9117;SDS011;4594;50.994;7.126;2023-10-13T01:34:42;5.47;;;4.97;;
9117;SDS011;4594;50.994;7.126;2023-10-13T01:37:11;5.43;;;4.63;;
9117;SDS011;4594;50.994;7.126;2023-10-13T01:39:37;4.97;;;4.50;;
9117;SDS011;4594;50.994;7.126;2023-10-13T01:42:03;7.97;;;4.87;;
9117;SDS011;4594;50.994;7.126;2023-10-13T01:44:28;6.90;;;5.27;;
9117;SDS011;4594;50.994;7.126;2023-10-13T01:46:55;7.60;;;5.17;;
9117;SDS011;4594;50.994;7.126;2023-10-13T01:49:34;5.03;;;4.70;;
9117;SDS011;4594;50.994;7.126;2023-10-13T01:52:07;8.10;;;5.10;;
9117;SDS011;4594;50.994;7.126;2023-10-13T01:54:40;7.00;;;4.90;;
9117;SDS011;4594;50.994;7.126;2023-10-13T01:57:09;4.90;;;4.50;;
9117;SDS011;4594;50.994;7.126;2023-10-13T01:59:43;7.87;;;5.37;;
9117;SDS011;4594;50.994;7.126;2023-10-13T02:02:10;4.90;;;4.40;;
9117;SDS011;4594;50.994;7.126;2023-10-13T02:04:40;5.17;;;4.63;;
9117;SDS011;4594;50.994;7.126;2023-10-13T02:07:21;5.17;;;4.73;;
9117;SDS011;4594;50.994;7.126;2023-10-13T02:09:51;5.03;;;4.53;;
9117;SDS011;4594;50.994;7.126;2023-10-13T02:12:19;6.93;;;5.23;;
9117;SDS011;4594;50.994;7.126;2023-10-13T02:14:52;10.77;;;4.97;;
9117;SDS011;4594;50.994;7.126;2023-10-13T02:17:18;7.77;;;4.67;;
9117;SDS011;4594;50.994;7.126;2023-10-13T02:19:46;5.77;;;5.27;;
9117;SDS011;4594;50.994;7.126;2023-10-13T02:22:12;9.83;;;5.20;;
9117;SDS011;4594;50.994;7.126;2023-10-13T02:24:56;6.13;;;4.83;;
9117;SDS011;4594;50.994;7.126;2023-10-13T02:27:32;7.73;;;5.23;;
9117;SDS011;4594;50.994;7.126;2023-10-13T02:30:07;8.90;;;5.27;;
9117;SDS011;4594;50.994;7.126;2023-10-13T02:32:38;6.03;;;5.13;;
9117;SDS011;4594;50.994;7.126;2023-10-13T02:35:08;6.07;;;4.93;;
9117;SDS011;4594;50.994;7.126;2023-10-13T02:37:40;5.20;;;4.70;;
9117;SDS011;4594;50.994;7.126;2023-10-13T02:40:09;7.40;;;4.83;;
9117;SDS011;4594;50.994;7.126;2023-10-13T02:42:37;10.13;;;5.27;;
9117;SDS011;4594;50.994;7.126;2023-10-13T02:45:03;5.73;;;5.10;;
9117;SDS011;4594;50.994;7.126;2023-10-13T02:47:31;7.50;;;5.03;;
9117;SDS011;4594;50.994;7.126;2023-10-13T02:49:57;6.33;;;4.83;;
9117;SDS011;4594;50.994;7.126;2023-10-13T02:52:26;5.33;;;4.77;;
9117;SDS011;4594;50.994;7.126;2023-10-13T02:54:52;5.97;;;4.90;;
9117;SDS011;4594;50.994;7.126;2023-10-13T02:57:17;5.47;;;4.80;;
9117;SDS011;4594;50.994;7.126;2023-10-13T02:59:44;8.63;;;5.03;;
9117;SDS011;4594;50.994;7.126;2023-10-13T03:02:21;6.30;;;5.13;;
9117;SDS011;4594;50.994;7.126;2023-10-13T03:04:54;5.10;;;4.60;;
9117;SDS011;4594;50.994;7.126;2023-10-13T03:07:33;5.37;;;4.67;;
9117;SDS011;4594;50.994;7.126;2023-10-13T03:10:01;4.70;;;4.30;;
9117;SDS011;4594;50.994;7.126;2023-10-13T03:12:37;6.30;;;4.80;;
9117;SDS011;4594;50.994;7.126;2023-10-13T03:15:05;6.33;;;5.17;;
9117;SDS011;4594;50.994;7.126;2023-10-13T03:17:42;7.00;;;4.93;;
9117;SDS011;4594;50.994;7.126;2023-10-13T03:20:16;8.00;;;5.17;;
9117;SDS011;4594;50.994;7.126;2023-10-13T03:22:54;5.17;;;4.77;;
9117;SDS011;4594;50.994;7.126;2023-10-13T03:25:20;8.67;;;5.37;;
9117;SDS011;4594;50.994;7.126;2023-10-13T03:27:58;6.60;;;4.83;;
9117;SDS011;4594;50.994;7.126;2023-10-13T03:30:24;5.53;;;4.93;;
9117;SDS011;4594;50.994;7.126;2023-10-13T03:33:10;8.53;;;5.23;;
9117;SDS011;4594;50.994;7.126;2023-10-13T03:35:50;9.23;;;5.60;;
9117;SDS011;4594;50.994;7.126;2023-10-13T03:38:19;11.57;;;5.40;;
9117;SDS011;4594;50.994;7.126;2023-10-13T03:40:49;7.40;;;4.80;;
9117;SDS011;4594;50.994;7.126;2023-10-13T03:43:31;6.17;;;5.17;;
9117;SDS011;4594;50.994;7.126;2023-10-13T03:45:59;6.83;;;4.93;;
9117;SDS011;4594;50.994;7.126;2023-10-13T03:48:26;7.17;;;5.17;;
9117;SDS011;4594;50.994;7.126;2023-10-13T03:50:52;5.20;;;4.80;;
9117;SDS011;4594;50.994;7.126;2023-10-13T03:53:34;8.43;;;5.10;;
9117;SDS011;4594;50.994;7.126;2023-10-13T03:56:25;10.03;;;5.60;;
9117;SDS011;4594;50.994;7.126;2023-10-13T03:59:03;7.53;;;4.73;;
9117;SDS011;4594;50.994;7.126;2023-10-13T04:01:31;6.70;;;5.40;;
9117;SDS011;4594;50.994;7.126;2023-10-13T04:04:15;6.17;;;5.20;;
9117;SDS011;4594;50.994;7.126;2023-10-13T04:07:03;6.60;;;4.87;;
9117;SDS011;4594;50.994;7.126;2023-10-13T04:09:32;7.20;;;5.00;;
9117;SDS011;4594;50.994;7.126;2023-10-13T04:12:04;5.50;;;4.90;;
9117;SDS011;4594;50.994;7.126;2023-10-13T04:14:44;5.80;;;5.17;;
9117;SDS011;4594;50.994;7.126;2023-10-13T04:17:29;6.00;;;5.40;;
9117;SDS011;4594;50.994;7.126;2023-10-13T04:19:59;6.53;;;5.73;;
9117;SDS011;4594;50.994;7.126;2023-10-13T04:22:34;7.17;;;5.17;;
9117;SDS011;4594;50.994;7.126;2023-10-13T04:25:15;7.47;;;5.10;;
9117;SDS011;4594;50.994;7.126;2023-10-13T04:27:53;10.73;;;5.43;;
9117;SDS011;4594;50.994;7.126;2023-10-13T04:30:39;19.33;;;5.07;;
9117;SDS011;4594;50.994;7.126;2023-10-13T04:33:17;6.67;;;4.67;;
9117;SDS011;4594;50.994;7.126;2023-10-13T04:36:14;5.03;;;4.63;;
9117;SDS011;4594;50.994;7.126;2023-10-13T04:38:43;8.30;;;4.87;;
9117;SDS011;4594;50.994;7.126;2023-10-13T04:41:21;6.97;;;5.23;;
9117;SDS011;4594;50.994;7.126;2023-10-13T04:44:22;5.23;;;4.33;;
9117;SDS011;4594;50.994;7.126;2023-10-13T04:46:56;6.77;;;5.37;;
9117;SDS011;4594;50.994;7.126;2023-10-13T04:49:26;6.23;;;5.30;;
9117;SDS011;4594;50.994;7.126;2023-10-13T04:51:55;8.23;;;5.30;;
9117;SDS011;4594;50.994;7.126;2023-10-13T04:54:27;7.57;;;4.63;;
9117;SDS011;4594;50.994;7.126;2023-10-13T04:57:12;5.50;;;5.00;;
9117;SDS011;4594;50.994;7.126;2023-10-13T04:59:44;6.17;;;5.03;;
9117;SDS011;4594;50.994;7.126;2023-10-13T05:02:32;8.80;;;5.03;;
9117;SDS011;4594;50.994;7.126;2023-10-13T05:05:12;8.03;;;5.37;;
9117;SDS011;4594;50.994;7.126;2023-10-13T05:07:39;8.20;;;5.50;;
9117;SDS011;4594;50.994;7.126;2023-10-13T05:10:24;5.07;;;4.27;;
9117;SDS011;4594;50.994;7.126;2023-10-13T05:13:09;7.20;;;5.33;;
9117;SDS011;4594;50.994;7.126;2023-10-13T05:15:53;9.67;;;5.47;;
9117;SDS011;4594;50.994;7.126;2023-10-13T05:18:38;8.07;;;4.77;;
9117;SDS011;4594;50.994;7.126;2023-10-13T05:21:22;7.37;;;4.83;;
9117;SDS011;4594;50.994;7.126;2023-10-13T05:24:06;5.77;;;4.97;;
9117;SDS011;4594;50.994;7.126;2023-10-13T05:26:51;6.90;;;4.57;;
9117;SDS011;4594;50.994;7.126;2023-10-13T05:29:40;8.17;;;5.77;;
9117;SDS011;4594;50.994;7.126;2023-10-13T05:32:25;8.20;;;5.20;;
9117;SDS011;4594;50.994;7.126;2023-10-13T05:35:11;8.30;;;4.93;;
9117;SDS011;4594;50.994;7.126;2023-10-13T05:37:56;7.50;;;4.60;;
9117;SDS011;4594;50.994;7.126;2023-10-13T05:44:02;6.70;;;4.80;;
9117;SDS011;4594;50.994;7.126;2023-10-13T05:46:46;5.03;;;4.53;;
9117;SDS011;4594;50.994;7.126;2023-10-13T05:49:35;6.80;;;4.87;;
9117;SDS011;4594;50.994;7.126;2023-10-13T05:52:29;8.97;;;4.77;;
9117;SDS011;4594;50.994;7.126;2023-10-13T05:55:13;6.83;;;4.47;;
9117;SDS011;4594;50.994;7.126;2023-10-13T05:57:58;8.23;;;4.63;;
9117;SDS011;4594;50.994;7.126;2023-10-13T06:00:42;5.27;;;4.77;;
9117;SDS011;4594;50.994;7.126;2023-10-13T06:03:26;7.80;;;4.83;;
9117;SDS011;4594;50.994;7.126;2023-10-13T06:06:10;5.90;;;4.60;;
9117;SDS011;4594;50.994;7.126;2023-10-13T06:08:54;4.77;;;4.30;;
9117;SDS011;4594;50.994;7.126;2023-10-13T06:11:38;9.40;;;4.30;;
9117;SDS011;4594;50.994;7.126;2023-10-13T06:14:22;5.70;;;4.90;;
9117;SDS011;4594;50.994;7.126;2023-10-13T06:17:06;5.73;;;4.70;;
9117;SDS011;4594;50.994;7.126;2023-10-13T06:19:51;9.37;;;4.63;;
9117;SDS011;4594;50.994;7.126;2023-10-13T06:22:35;9.60;;;4.90;;
9117;SDS011;4594;50.994;7.126;2023-10-13T06:25:19;5.90;;;4.70;;
9117;SDS011;4594;50.994;7.126;2023-10-13T06:28:04;5.33;;;4.40;;
9117;SDS011;4594;50.994;7.126;2023-10-13T06:30:55;7.23;;;4.53;;
9117;SDS011;4594;50.994;7.126;2023-10-13T06:33:23;7.50;;;4.53;;
9117;SDS011;4594;50.994;7.126;2023-10-13T06:35:53;5.83;;;4.30;;
9117;SDS011;4594;50.994;7.126;2023-10-13T06:38:23;7.17;;;4.67;;
9117;SDS011;4594;50.994;7.126;2023-10-13T06:40:49;6.47;;;4.50;;
9117;SDS011;4594;50.994;7.126;2023-10-13T06:43:18;4.90;;;4.20;;
9117;SDS011;4594;50.994;7.126;2023-10-13T06:45:47;8.03;;;4.80;;
9117;SDS011;4594;50.994;7.126;2023-10-13T06:48:25;8.97;;;4.63;;
9117;SDS011;4594;50.994;7.126;2023-10-13T06:50:51;17.97;;;5.20;;
9117;SDS011;4594;50.994;7.126;2023-10-13T06:53:21;9.97;;;4.50;;
9117;SDS011;4594;50.994;7.126;2023-10-13T06:55:47;5.63;;;4.40;;
9117;SDS011;4594;50.994;7.126;2023-10-13T06:58:18;11.07;;;5.13;;
9117;SDS011;4594;50.994;7.126;2023-10-13T07:00:49;8.23;;;4.50;;
9117;SDS011;4594;50.994;7.126;2023-10-13T07:03:20;6.53;;;5.00;;
9117;SDS011;4594;50.994;7.126;2023-10-13T07:05:47;8.50;;;5.00;;
9117;SDS011;4594;50.994;7.126;2023-10-13T07:08:13;10.37;;;4.73;;
9117;SDS011;4594;50.994;7.126;2023-10-13T07:10:53;7.03;;;4.27;;
9117;SDS011;4594;50.994;7.126;2023-10-13T07:13:42;6.57;;;4.30;;
9117;SDS011;4594;50.994;7.126;2023-10-13T07:16:15;8.57;;;4.73;;
9117;SDS011;4594;50.994;7.126;2023-10-13T07:18:40;11.07;;;5.23;;
9117;SDS011;4594;50.994;7.126;2023-10-13T07:21:14;11.37;;;4.57;;
9117;SDS011;4594;50.994;7.126;2023-10-13T07:23:41;9.67;;;4.80;;
9117;SDS011;4594;50.994;7.126;2023-10-13T07:26:25;8.07;;;4.17;;
9117;SDS011;4594;50.994;7.126;2023-10-13T07:28:51;9.53;;;4.63;;
9117;SDS011;4594;50.994;7.126;2023-10-13T07:31:17;9.77;;;5.00;;
9117;SDS011;4594;50.994;7.126;2023-10-13T07:33:45;11.40;;;4.27;;
9117;SDS011;4594;50.994;7.126;2023-10-13T07:36:12;9.53;;;3.93;;
9117;SDS011;4594;50.994;7.126;2023-10-13T07:38:45;8.00;;;4.10;;
9117;SDS011;4594;50.994;7.126;2023-10-13T07:41:17;8.53;;;4.73;;
9117;SDS011;4594;50.994;7.126;2023-10-13T07:43:46;6.27;;;4.20;;
9117;SDS011;4594;50.994;7.126;2023-10-13T07:46:15;9.90;;;4.40;;
9117;SDS011;4594;50.994;7.126;2023-10-13T07:48:41;9.37;;;5.00;;
9117;SDS011;4594;50.994;7.126;2023-10-13T07:51:10;12.20;;;4.90;;
9117;SDS011;4594;50.994;7.126;2023-10-13T07:53:41;7.50;;;4.40;;
9117;SDS011;4594;50.994;7.126;2023-10-13T07:56:13;8.97;;;4.60;;
9117;SDS011;4594;50.994;7.126;2023-10-13T07:58:43;10.00;;;4.33;;
9117;SDS011;4594;50.994;7.126;2023-10-13T08:01:18;11.37;;;4.23;;
9117;SDS011;4594;50.994;7.126;2023-10-13T08:03:44;7.53;;;4.93;;
9117;SDS011;4594;50.994;7.126;2023-10-13T08:06:11;9.83;;;4.03;;
9117;SDS011;4594;50.994;7.126;2023-10-13T08:08:39;9.17;;;4.97;;
9117;SDS011;4594;50.994;7.126;2023-10-13T08:11:15;7.17;;;4.73;;
9117;SDS011;4594;50.994;7.126;2023-10-13T08:13:47;5.37;;;4.63;;
9117;SDS011;4594;50.994;7.126;2023-10-13T08:16:55;7.23;;;4.07;;
9117;SDS011;4594;50.994;7.126;2023-10-13T08:19:24;11.80;;;4.67;;
9117;SDS011;4594;50.994;7.126;2023-10-13T08:21:52;9.77;;;4.50;;
9117;SDS011;4594;50.994;7.126;2023-10-13T08:24:45;7.80;;;4.47;;
9117;SDS011;4594;50.994;7.126;2023-10-13T08:27:13;8.33;;;4.27;;
9117;SDS011;4594;50.994;7.126;2023-10-13T08:29:59;9.00;;;4.47;;
9117;SDS011;4594;50.994;7.126;2023-10-13T08:32:27;16.53;;;4.57;;
9117;SDS011;4594;50.994;7.126;2023-10-13T08:34:55;16.43;;;4.77;;
9117;SDS011;4594;50.994;7.126;2023-10-13T08:37:35;6.70;;;3.80;;
9117;SDS011;4594;50.994;7.126;2023-10-13T08:40:24;8.63;;;4.70;;
9117;SDS011;4594;50.994;7.126;2023-10-13T08:43:11;7.77;;;4.20;;
9117;SDS011;4594;50.994;7.126;2023-10-13T08:45:38;12.37;;;4.70;;
9117;SDS011;4594;50.994;7.126;2023-10-13T08:48:10;11.40;;;4.17;;
9117;SDS011;4594;50.994;7.126;2023-10-13T08:53:20;10.10;;;4.47;;
9117;SDS011;4594;50.994;7.126;2023-10-13T08:55:56;15.10;;;5.00;;
9117;SDS011;4594;50.994;7.126;2023-10-13T08:58:34;11.30;;;4.43;;
9117;SDS011;4594;50.994;7.126;2023-10-13T09:01:20;8.80;;;4.10;;
9117;SDS011;4594;50.994;7.126;2023-10-13T09:04:01;5.97;;;4.40;;
9117;SDS011;4594;50.994;7.126;2023-10-13T09:09:32;9.47;;;4.00;;
9117;SDS011;4594;50.994;7.126;2023-10-13T09:15:07;10.53;;;3.97;;
9117;SDS011;4594;50.994;7.126;2023-10-13T09:17:44;12.73;;;4.30;;
9117;SDS011;4594;50.994;7.126;2023-10-13T09:20:32;16.77;;;4.60;;
9117;SDS011;4594;50.994;7.126;2023-10-13T09:23:11;6.10;;;4.23;;
9117;SDS011;4594;50.994;7.126;2023-10-13T09:25:50;12.90;;;4.33;;
9117;SDS011;4594;50.994;7.126;2023-10-13T09:28:22;12.80;;;4.37;;
9117;SDS011;4594;50.994;7.126;2023-10-13T09:30:52;6.63;;;3.83;;
9117;SDS011;4594;50.994;7.126;2023-10-13T09:33:24;7.00;;;4.37;;
9117;SDS011;4594;50.994;7.126;2023-10-13T09:35:58;11.97;;;4.30;;
9117;SDS011;4594;50.994;7.126;2023-10-13T09:38:25;8.57;;;4.83;;
9117;SDS011;4594;50.994;7.126;2023-10-13T09:40:53;7.30;;;4.27;;
9117;SDS011;4594;50.994;7.126;2023-10-13T09:43:22;8.03;;;4.10;;
9117;SDS011;4594;50.994;7.126;2023-10-13T09:45:58;10.27;;;4.43;;
9117;SDS011;4594;50.994;7.126;2023-10-13T09:48:33;8.13;;;4.27;;
9117;SDS011;4594;50.994;7.126;2023-10-13T09:51:05;12.43;;;4.20;;
9117;SDS011;4594;50.994;7.126;2023-10-13T09:53:40;10.07;;;4.13;;
9117;SDS011;4594;50.994;7.126;2023-10-13T09:56:16;5.30;;;3.93;;
9117;SDS011;4594;50.994;7.126;2023-10-13T09:59:02;5.53;;;3.87;;
9117;SDS011;4594;50.994;7.126;2023-10-13T10:01:40;7.63;;;4.50;;
9117;SDS011;4594;50.994;7.126;2023-10-13T10:04:24;6.20;;;3.80;;
9117;SDS011;4594;50.994;7.126;2023-10-13T10:06:56;7.27;;;3.60;;
9117;SDS011;4594;50.994;7.126;2023-10-13T10:09:27;7.63;;;4.17;;
9117;SDS011;4594;50.994;7.126;2023-10-13T10:15:28;9.23;;;4.00;;
9117;SDS011;4594;50.994;7.126;2023-10-13T10:17:59;12.87;;;4.80;;
9117;SDS011;4594;50.994;7.126;2023-10-13T10:20:30;6.67;;;4.20;;
9117;SDS011;4594;50.994;7.126;2023-10-13T10:23:25;4.80;;;3.73;;
9117;SDS011;4594;50.994;7.126;2023-10-13T10:26:09;8.07;;;4.57;;
9117;SDS011;4594;50.994;7.126;2023-10-13T10:28:45;5.30;;;4.00;;
9117;SDS011;4594;50.994;7.126;2023-10-13T10:31:12;7.90;;;4.80;;
9117;SDS011;4594;50.994;7.126;2023-10-13T10:33:41;8.83;;;4.17;;
9117;SDS011;4594;50.994;7.126;2023-10-13T10:36:08;9.90;;;4.47;;
9117;SDS011;4594;50.994;7.126;2023-10-13T10:38:52;8.47;;;5.63;;
9117;SDS011;4594;50.994;7.126;2023-10-13T10:41:27;7.17;;;5.47;;
9117;SDS011;4594;50.994;7.126;2023-10-13T10:44:11;8.87;;;5.47;;
9117;SDS011;4594;50.994;7.126;2023-10-13T10:46:51;5.93;;;4.33;;
9117;SDS011;4594;50.994;7.126;2023-10-13T10:49:21;8.80;;;4.37;;
9117;SDS011;4594;50.994;7.126;2023-10-13T10:51:57;9.17;;;4.27;;
9117;SDS011;4594;50.994;7.126;2023-10-13T10:54:34;6.00;;;4.50;;
9117;SDS011;4594;50.994;7.126;2023-10-13T10:57:00;8.03;;;5.57;;
9117;SDS011;4594;50.994;7.126;2023-10-13T10:59:36;10.43;;;4.90;;
9117;SDS011;4594;50.994;7.126;2023-10-13T11:02:03;8.67;;;5.53;;
9117;SDS011;4594;50.994;7.126;2023-10-13T11:04:31;8.57;;;4.70;;
9117;SDS011;4594;50.994;7.126;2023-10-13T11:07:06;5.63;;;4.80;;
9117;SDS011;4594;50.994;7.126;2023-10-13T11:09:34;5.30;;;4.67;;
9117;SDS011;4594;50.994;7.126;2023-10-13T11:12:11;9.57;;;5.53;;
9117;SDS011;4594;50.994;7.126;2023-10-13T11:14:48;14.40;;;5.10;;
9117;SDS011;4594;50.994;7.126;2023-10-13T11:17:25;6.57;;;5.27;;
9117;SDS011;4594;50.994;7.126;2023-10-13T11:20:07;5.50;;;4.60;;
9117;SDS011;4594;50.994;7.126;2023-10-13T11:22:50;7.47;;;5.33;;
9117;SDS011;4594;50.994;7.126;2023-10-13T11:25:21;11.47;;;5.03;;
9117;SDS011;4594;50.994;7.126;2023-10-13T11:27:56;8.97;;;5.13;;
9117;SDS011;4594;50.994;7.126;2023-10-13T11:30:24;8.50;;;4.90;;
9117;SDS011;4594;50.994;7.126;2023-10-13T11:35:26;6.40;;;4.87;;
9117;SDS011;4594;50.994;7.126;2023-10-13T11:38:12;10.83;;;5.43;;
9117;SDS011;4594;50.994;7.126;2023-10-13T11:40:39;8.90;;;4.83;;
9117;SDS011;4594;50.994;7.126;2023-10-13T11:43:23;7.10;;;4.57;;
9117;SDS011;4594;50.994;7.126;2023-10-13T11:45:49;14.47;;;4.90;;
9117;SDS011;4594;50.994;7.126;2023-10-13T11:48:38;9.77;;;4.90;;
9117;SDS011;4594;50.994;7.126;2023-10-13T11:51:14;14.13;;;5.20;;
9117;SDS011;4594;50.994;7.126;2023-10-13T11:53:48;8.23;;;4.83;;
9117;SDS011;4594;50.994;7.126;2023-10-13T11:56:21;11.73;;;5.77;;
9117;SDS011;4594;50.994;7.126;2023-10-13T11:58:47;8.80;;;5.00;;
9117;SDS011;4594;50.994;7.126;2023-10-13T12:01:13;8.23;;;4.97;;
9117;SDS011;4594;50.994;7.126;2023-10-13T12:03:40;7.13;;;4.90;;
9117;SDS011;4594;50.994;7.126;2023-10-13T12:06:30;9.50;;;4.83;;
9117;SDS011;4594;50.994;7.126;2023-10-13T12:09:05;12.30;;;4.50;;
9117;SDS011;4594;50.994;7.126;2023-10-13T12:11:41;8.93;;;4.67;;
9117;SDS011;4594;50.994;7.126;2023-10-13T12:14:08;7.67;;;4.87;;
9117;SDS011;4594;50.994;7.126;2023-10-13T12:16:50;6.50;;;4.93;;
9117;SDS011;4594;50.994;7.126;2023-10-13T12:19:16;13.40;;;5.80;;
9117;SDS011;4594;50.994;7.126;2023-10-13T12:21:48;14.23;;;4.87;;
9117;SDS011;4594;50.994;7.126;2023-10-13T12:24:15;7.67;;;5.33;;
9117;SDS011;4594;50.994;7.126;2023-10-13T12:26:59;6.43;;;4.93;;
9117;SDS011;4594;50.994;7.126;2023-10-13T12:29:25;14.37;;;5.43;;
9117;SDS011;4594;50.994;7.126;2023-10-13T12:31:57;6.10;;;4.40;;
9117;SDS011;4594;50.994;7.126;2023-10-13T12:34:39;7.40;;;4.53;;
9117;SDS011;4594;50.994;7.126;2023-10-13T12:37:28;6.47;;;4.27;;
9117;SDS011;4594;50.994;7.126;2023-10-13T12:42:57;7.77;;;4.30;;
9117;SDS011;4594;50.994;7.126;2023-10-13T12:45:42;7.40;;;4.50;;
9117;SDS011;4594;50.994;7.126;2023-10-13T12:48:32;8.30;;;5.47;;
9117;SDS011;4594;50.994;7.126;2023-10-13T12:51:18;12.23;;;5.70;;
9117;SDS011;4594;50.994;7.126;2023-10-13T12:54:05;10.00;;;5.30;;
9117;SDS011;4594;50.994;7.126;2023-10-13T12:56:45;9.17;;;5.53;;
9117;SDS011;4594;50.994;7.126;2023-10-13T12:59:11;11.57;;;5.80;;
9117;SDS011;4594;50.994;7.126;2023-10-13T13:01:40;10.80;;;5.70;;
9117;SDS011;4594;50.994;7.126;2023-10-13T13:04:09;10.77;;;5.70;;
9117;SDS011;4594;50.994;7.126;2023-10-13T13:06:43;8.80;;;4.47;;
9117;SDS011;4594;50.994;7.126;2023-10-13T13:09:09;5.63;;;4.47;;
9117;SDS011;4594;50.994;7.126;2023-10-13T13:11:35;10.10;;;4.50;;
9117;SDS011;4594;50.994;7.126;2023-10-13T13:14:07;11.90;;;4.47;;
9117;SDS011;4594;50.994;7.126;2023-10-13T13:16:34;8.57;;;4.90;;
9117;SDS011;4594;50.994;7.126;2023-10-13T13:19:03;10.27;;;5.07;;
9117;SDS011;4594;50.994;7.126;2023-10-13T13:21:36;9.90;;;4.50;;
9117;SDS011;4594;50.994;7.126;2023-10-13T13:24:02;15.70;;;4.50;;
9117;SDS011;4594;50.994;7.126;2023-10-13T13:26:30;12.50;;;4.40;;
9117;SDS011;4594;50.994;7.126;2023-10-13T13:28:56;12.20;;;4.40;;
9117;SDS011;4594;50.994;7.126;2023-10-13T13:31:22;7.17;;;4.30;;
9117;SDS011;4594;50.994;7.126;2023-10-13T13:33:54;6.87;;;4.07;;
9117;SDS011;4594;50.994;7.126;2023-10-13T13:36:20;5.97;;;4.40;;
9117;SDS011;4594;50.994;7.126;2023-10-13T13:38:47;14.00;;;5.20;;
9117;SDS011;4594;50.994;7.126;2023-10-13T13:41:19;9.90;;;4.87;;
9117;SDS011;4594;50.994;7.126;2023-10-13T13:43:47;12.43;;;4.07;;
9117;SDS011;4594;50.994;7.126;2023-10-13T13:46:18;13.60;;;4.50;;
9117;SDS011;4594;50.994;7.126;2023-10-13T13:48:57;7.60;;;4.20;;
9117;SDS011;4594;50.994;7.126;2023-10-13T13:51:28;11.47;;;4.17;;
9117;SDS011;4594;50.994;7.126;2023-10-13T13:53:57;6.77;;;3.93;;
9117;SDS011;4594;50.994;7.126;2023-10-13T13:56:24;5.97;;;3.97;;
9117;SDS011;4594;50.994;7.126;2023-10-13T13:58:52;13.77;;;6.43;;
9117;SDS011;4594;50.994;7.126;2023-10-13T14:01:19;12.97;;;6.30;;
9117;SDS011;4594;50.994;7.126;2023-10-13T14:03:52;8.90;;;5.13;;
9117;SDS011;4594;50.994;7.126;2023-10-13T14:06:22;7.13;;;4.20;;
9117;SDS011;4594;50.994;7.126;2023-10-13T14:08:50;6.97;;;4.63;;
9117;SDS011;4594;50.994;7.126;2023-10-13T14:11:20;18.20;;;5.03;;
9117;SDS011;4594;50.994;7.126;2023-10-13T14:14:14;14.40;;;5.53;;
9117;SDS011;4594;50.994;7.126;2023-10-13T14:16:50;7.63;;;5.10;;
9117;SDS011;4594;50.994;7.126;2023-10-13T14:19:16;10.47;;;5.53;;
9117;SDS011;4594;50.994;7.126;2023-10-13T14:22:01;14.40;;;5.83;;
9117;SDS011;4594;50.994;7.126;2023-10-13T14:24:31;10.93;;;5.43;;
9117;SDS011;4594;50.994;7.126;2023-10-13T14:27:00;10.33;;;5.47;;
9117;SDS011;4594;50.994;7.126;2023-10-13T14:29:37;6.60;;;4.53;;
9117;SDS011;4594;50.994;7.126;2023-10-13T14:32:10;12.83;;;4.67;;
9117;SDS011;4594;50.994;7.126;2023-10-13T14:34:40;10.63;;;4.60;;
9117;SDS011;4594;50.994;7.126;2023-10-13T14:37:07;12.00;;;5.13;;
9117;SDS011;4594;50.994;7.126;2023-10-13T14:39:37;14.37;;;5.87;;
9117;SDS011;4594;50.994;7.126;2023-10-13T14:42:04;17.30;;;5.37;;
9117;SDS011;4594;50.994;7.126;2023-10-13T14:44:33;10.93;;;5.23;;
9117;SDS011;4594;50.994;7.126;2023-10-13T14:47:03;10.60;;;5.60;;
9117;SDS011;4594;50.994;7.126;2023-10-13T14:49:33;9.00;;;4.77;;
9117;SDS011;4594;50.994;7.126;2023-10-13T14:52:00;9.47;;;5.00;;
9117;SDS011;4594;50.994;7.126;2023-10-13T14:54:26;9.90;;;4.53;;
9117;SDS011;4594;50.994;7.126;2023-10-13T14:56:59;11.97;;;5.53;;
9117;SDS011;4594;50.994;7.126;2023-10-13T14:59:28;8.73;;;5.83;;
9117;SDS011;4594;50.994;7.126;2023-10-13T15:01:58;15.60;;;6.73;;
9117;SDS011;4594;50.994;7.126;2023-10-13T15:04:26;10.43;;;6.90;;
9117;SDS011;4594;50.994;7.126;2023-10-13T15:06:53;8.70;;;5.90;;
9117;SDS011;4594;50.994;7.126;2023-10-13T15:09:20;17.23;;;6.07;;
9117;SDS011;4594;50.994;7.126;2023-10-13T15:11:48;8.27;;;4.83;;
9117;SDS011;4594;50.994;7.126;2023-10-13T15:14:18;7.97;;;4.67;;
9117;SDS011;4594;50.994;7.126;2023-10-13T15:16:45;10.13;;;5.70;;
9117;SDS011;4594;50.994;7.126;2023-10-13T15:19:11;10.33;;;6.23;;
9117;SDS011;4594;50.994;7.126;2023-10-13T15:21:37;13.40;;;6.57;;
9117;SDS011;4594;50.994;7.126;2023-10-13T15:24:05;17.70;;;7.63;;
9117;SDS011;4594;50.994;7.126;2023-10-13T15:26:39;20.80;;;10.63;;
9117;SDS011;4594;50.994;7.126;2023-10-13T15:29:07;20.17;;;10.27;;
9117;SDS011;4594;50.994;7.126;2023-10-13T15:31:40;17.83;;;8.33;;
9117;SDS011;4594;50.994;7.126;2023-10-13T15:34:11;14.60;;;7.63;;
9117;SDS011;4594;50.994;7.126;2023-10-13T15:36:43;10.33;;;6.13;;
9117;SDS011;4594;50.994;7.126;2023-10-13T15:39:09;11.77;;;7.07;;
9117;SDS011;4594;50.994;7.126;2023-10-13T15:41:36;26.60;;;11.80;;
9117;SDS011;4594;50.994;7.126;2023-10-13T15:44:03;18.67;;;9.30;;
9117;SDS011;4594;50.994;7.126;2023-10-13T15:46:34;14.27;;;8.63;;
9117;SDS011;4594;50.994;7.126;2023-10-13T15:49:02;13.17;;;7.37;;
9117;SDS011;4594;50.994;7.126;2023-10-13T15:51:31;10.47;;;6.17;;
9117;SDS011;4594;50.994;7.126;2023-10-13T15:54:01;11.30;;;5.80;;
9117;SDS011;4594;50.994;7.126;2023-10-13T15:56:32;6.47;;;5.10;;
9117;SDS011;4594;50.994;7.126;2023-10-13T15:59:00;7.23;;;5.30;;
9117;SDS011;4594;50.994;7.126;2023-10-13T16:01:27;8.50;;;5.37;;
9117;SDS011;4594;50.994;7.126;2023-10-13T16:03:53;10.17;;;6.73;;
9117;SDS011;4594;50.994;7.126;2023-10-13T16:06:20;16.37;;;7.93;;
9117;SDS011;4594;50.994;7.126;2023-10-13T16:08:50;15.23;;;6.20;;
9117;SDS011;4594;50.994;7.126;2023-10-13T16:11:18;9.47;;;5.10;;
9117;SDS011;4594;50.994;7.126;2023-10-13T16:13:44;9.90;;;5.00;;